sensor_id;sensor_type;location;lat;lon;timestamp;temperature;humidity
31499;DHT22;18115;52.486;13.386;2023-02-25T00:00:31;3.60;99.90
31499;DHT22;18115;52.486;13.386;2023-02-25T00:02:58;3.40;99.90
31499;DHT22;18115;52.486;13.386;2023-02-25T00:05:25;3.40;99.90
31499;DHT22;18115;52.486;13.386;2023-02-25T00:07:50;3.40;99.90
31499;DHT22;18115;52.486;13.386;2023-02-25T00:10:16;3.40;99.90
31499;DHT22;18115;52.486;13.386;2023-02-25T00:12:42;3.40;99.90
31499;DHT22;18115;52.486;13.386;2023-02-25T00:15:09;3.50;99.90
31499;DHT22;18115;52.486;13.386;2023-02-25T00:17:35;3.60;99.90
31499;DHT22;18115;52.486;13.386;2023-02-25T00:20:05;3.40;99.90
31499;DHT22;18115;52.486;13.386;2023-02-25T00:22:34;3.50;99.90
31499;DHT22;18115;52.486;13.386;2023-02-25T00:27:27;3.50;99.90
31499;DHT22;18115;52.486;13.386;2023-02-25T00:29:53;3.40;99.90
31499;DHT22;18115;52.486;13.386;2023-02-25T00:32:20;3.30;99.90
31499;DHT22;18115;52.486;13.386;2023-02-25T00:34:46;2.90;99.90
31499;DHT22;18115;52.486;13.386;2023-02-25T00:37:12;2.80;99.90
31499;DHT22;18115;52.486;13.386;2023-02-25T00:42:12;2.40;99.90
31499;DHT22;18115;52.486;13.386;2023-02-25T00:44:38;2.20;99.90
31499;DHT22;18115;52.486;13.386;2023-02-25T00:47:04;2.20;99.90
31499;DHT22;18115;52.486;13.386;2023-02-25T00:49:32;2.10;99.90
31499;DHT22;18115;52.486;13.386;2023-02-25T00:54:24;2.00;99.90
31499;DHT22;18115;52.486;13.386;2023-02-25T00:59:16;1.90;99.90
31499;DHT22;18115;52.486;13.386;2023-02-25T01:01:41;2.10;99.90
31499;DHT22;18115;52.486;13.386;2023-02-25T01:04:08;2.00;99.90
31499;DHT22;18115;52.486;13.386;2023-02-25T01:06:34;2.00;99.90
31499;DHT22;18115;52.486;13.386;2023-02-25T01:09:02;2.00;99.90
31499;DHT22;18115;52.486;13.386;2023-02-25T01:11:33;1.80;99.90
31499;DHT22;18115;52.486;13.386;2023-02-25T01:14:09;2.20;99.90
31499;DHT22;18115;52.486;13.386;2023-02-25T01:19:08;2.10;99.90
31499;DHT22;18115;52.486;13.386;2023-02-25T01:21:40;2.20;99.90
31499;DHT22;18115;52.486;13.386;2023-02-25T01:24:13;2.30;99.90
31499;DHT22;18115;52.486;13.386;2023-02-25T01:26:40;2.30;99.90
31499;DHT22;18115;52.486;13.386;2023-02-25T01:29:08;2.30;99.90
31499;DHT22;18115;52.486;13.386;2023-02-25T01:31:34;2.20;99.90
31499;DHT22;18115;52.486;13.386;2023-02-25T01:34:01;2.40;99.90
31499;DHT22;18115;52.486;13.386;2023-02-25T01:36:29;2.50;99.90
31499;DHT22;18115;52.486;13.386;2023-02-25T01:38:55;2.50;99.90
31499;DHT22;18115;52.486;13.386;2023-02-25T01:41:25;2.50;99.90
31499;DHT22;18115;52.486;13.386;2023-02-25T01:46:29;2.60;99.90
31499;DHT22;18115;52.486;13.386;2023-02-25T01:48:55;2.60;99.90
31499;DHT22;18115;52.486;13.386;2023-02-25T01:51:22;2.70;99.90
31499;DHT22;18115;52.486;13.386;2023-02-25T01:53:54;2.70;99.90
31499;DHT22;18115;52.486;13.386;2023-02-25T01:56:23;2.70;99.90
31499;DHT22;18115;52.486;13.386;2023-02-25T01:58:51;2.90;99.90
31499;DHT22;18115;52.486;13.386;2023-02-25T02:01:20;2.70;99.90
31499;DHT22;18115;52.486;13.386;2023-02-25T02:03:47;2.90;99.90
31499;DHT22;18115;52.486;13.386;2023-02-25T02:06:29;2.80;99.90
31499;DHT22;18115;52.486;13.386;2023-02-25T02:08:57;2.80;99.90
31499;DHT22;18115;52.486;13.386;2023-02-25T02:11:24;2.90;99.90
31499;DHT22;18115;52.486;13.386;2023-02-25T02:13:53;2.80;99.90
31499;DHT22;18115;52.486;13.386;2023-02-25T02:16:39;2.80;99.90
31499;DHT22;18115;52.486;13.386;2023-02-25T02:25:03;2.80;99.90
31499;DHT22;18115;52.486;13.386;2023-02-25T02:35:58;2.90;99.90
31499;DHT22;18115;52.486;13.386;2023-02-25T02:41:22;3.10;99.90
31499;DHT22;18115;52.486;13.386;2023-02-25T02:44:04;3.10;99.90
31499;DHT22;18115;52.486;13.386;2023-02-25T02:47:02;3.00;99.90
31499;DHT22;18115;52.486;13.386;2023-02-25T02:49:45;3.50;99.90
31499;DHT22;18115;52.486;13.386;2023-02-25T02:52:17;3.00;99.90
31499;DHT22;18115;52.486;13.386;2023-02-25T02:54:49;2.90;99.90
31499;DHT22;18115;52.486;13.386;2023-02-25T02:57:18;3.00;99.90
31499;DHT22;18115;52.486;13.386;2023-02-25T03:00:03;2.90;99.90
31499;DHT22;18115;52.486;13.386;2023-02-25T03:02:45;2.80;99.90
31499;DHT22;18115;52.486;13.386;2023-02-25T03:05:15;2.90;99.90
31499;DHT22;18115;52.486;13.386;2023-02-25T03:07:46;2.80;99.90
31499;DHT22;18115;52.486;13.386;2023-02-25T03:10:19;2.50;99.90
31499;DHT22;18115;52.486;13.386;2023-02-25T03:15:11;2.80;99.90
31499;DHT22;18115;52.486;13.386;2023-02-25T03:17:41;2.70;99.90
31499;DHT22;18115;52.486;13.386;2023-02-25T03:20:19;2.70;99.90
31499;DHT22;18115;52.486;13.386;2023-02-25T03:22:48;2.50;99.90
31499;DHT22;18115;52.486;13.386;2023-02-25T03:25:24;2.80;99.90
31499;DHT22;18115;52.486;13.386;2023-02-25T03:27:54;2.70;99.90
31499;DHT22;18115;52.486;13.386;2023-02-25T03:32:56;2.70;99.90
31499;DHT22;18115;52.486;13.386;2023-02-25T03:37:55;2.70;99.90
31499;DHT22;18115;52.486;13.386;2023-02-25T03:40:24;2.60;99.90
31499;DHT22;18115;52.486;13.386;2023-02-25T03:43:13;2.90;99.90
31499;DHT22;18115;52.486;13.386;2023-02-25T03:45:42;2.70;99.90
31499;DHT22;18115;52.486;13.386;2023-02-25T03:48:11;2.70;99.90
31499;DHT22;18115;52.486;13.386;2023-02-25T03:51:07;2.60;99.90
31499;DHT22;18115;52.486;13.386;2023-02-25T03:53:33;2.50;99.90
31499;DHT22;18115;52.486;13.386;2023-02-25T03:56:03;2.60;99.90
31499;DHT22;18115;52.486;13.386;2023-02-25T03:58:35;2.90;99.90
31499;DHT22;18115;52.486;13.386;2023-02-25T04:01:05;2.60;99.90
31499;DHT22;18115;52.486;13.386;2023-02-25T04:03:32;2.60;99.90
31499;DHT22;18115;52.486;13.386;2023-02-25T04:08:24;2.70;99.90
31499;DHT22;18115;52.486;13.386;2023-02-25T04:10:50;2.60;99.90
31499;DHT22;18115;52.486;13.386;2023-02-25T04:13:17;2.60;99.90
31499;DHT22;18115;52.486;13.386;2023-02-25T04:15:46;2.60;99.90
31499;DHT22;18115;52.486;13.386;2023-02-25T04:18:12;2.60;99.90
31499;DHT22;18115;52.486;13.386;2023-02-25T04:20:38;2.60;99.90
31499;DHT22;18115;52.486;13.386;2023-02-25T04:32:49;2.60;99.90
31499;DHT22;18115;52.486;13.386;2023-02-25T04:35:15;2.70;99.90
31499;DHT22;18115;52.486;13.386;2023-02-25T04:37:42;2.50;99.90
31499;DHT22;18115;52.486;13.386;2023-02-25T04:40:20;2.40;99.90
31499;DHT22;18115;52.486;13.386;2023-02-25T04:42:46;2.40;99.90
31499;DHT22;18115;52.486;13.386;2023-02-25T04:45:13;2.40;99.90
31499;DHT22;18115;52.486;13.386;2023-02-25T04:47:40;2.30;99.90
31499;DHT22;18115;52.486;13.386;2023-02-25T04:50:07;2.40;99.90
31499;DHT22;18115;52.486;13.386;2023-02-25T04:57:25;2.60;99.90
31499;DHT22;18115;52.486;13.386;2023-02-25T04:59:51;3.00;99.90
31499;DHT22;18115;52.486;13.386;2023-02-25T05:02:17;2.00;99.90
31499;DHT22;18115;52.486;13.386;2023-02-25T05:04:42;2.30;99.90
31499;DHT22;18115;52.486;13.386;2023-02-25T05:07:08;2.40;99.90
31499;DHT22;18115;52.486;13.386;2023-02-25T05:09:34;2.30;99.90
31499;DHT22;18115;52.486;13.386;2023-02-25T05:12:00;1.80;99.90
31499;DHT22;18115;52.486;13.386;2023-02-25T05:14:26;2.30;99.90
31499;DHT22;18115;52.486;13.386;2023-02-25T05:16:52;2.30;99.90
31499;DHT22;18115;52.486;13.386;2023-02-25T05:19:20;2.20;99.90
31499;DHT22;18115;52.486;13.386;2023-02-25T05:21:49;2.20;99.90
31499;DHT22;18115;52.486;13.386;2023-02-25T05:24:16;2.20;99.90
31499;DHT22;18115;52.486;13.386;2023-02-25T05:26:42;2.20;99.90
31499;DHT22;18115;52.486;13.386;2023-02-25T05:36:26;2.30;99.90
31499;DHT22;18115;52.486;13.386;2023-02-25T05:38:57;2.20;99.90
31499;DHT22;18115;52.486;13.386;2023-02-25T05:41:27;2.20;99.90
31499;DHT22;18115;52.486;13.386;2023-02-25T05:43:53;2.30;99.90
31499;DHT22;18115;52.486;13.386;2023-02-25T05:46:19;2.20;99.90
31499;DHT22;18115;52.486;13.386;2023-02-25T05:48:45;2.20;99.90
31499;DHT22;18115;52.486;13.386;2023-02-25T05:51:14;2.10;99.90
31499;DHT22;18115;52.486;13.386;2023-02-25T05:53:40;2.10;99.90
31499;DHT22;18115;52.486;13.386;2023-02-25T05:56:09;2.10;99.90
31499;DHT22;18115;52.486;13.386;2023-02-25T05:58:35;2.00;99.90
31499;DHT22;18115;52.486;13.386;2023-02-25T06:01:10;2.10;99.90
31499;DHT22;18115;52.486;13.386;2023-02-25T06:03:38;1.80;99.90
31499;DHT22;18115;52.486;13.386;2023-02-25T06:06:05;1.90;99.90
31499;DHT22;18115;52.486;13.386;2023-02-25T06:08:31;1.90;99.90
31499;DHT22;18115;52.486;13.386;2023-02-25T06:10:57;2.00;99.90
31499;DHT22;18115;52.486;13.386;2023-02-25T06:13:25;1.90;99.90
31499;DHT22;18115;52.486;13.386;2023-02-25T06:15:51;1.90;99.90
31499;DHT22;18115;52.486;13.386;2023-02-25T06:18:17;2.10;99.90
31499;DHT22;18115;52.486;13.386;2023-02-25T06:25:34;1.90;99.90
31499;DHT22;18115;52.486;13.386;2023-02-25T06:28:02;1.60;99.90
31499;DHT22;18115;52.486;13.386;2023-02-25T06:30:28;1.80;99.90
31499;DHT22;18115;52.486;13.386;2023-02-25T06:35:20;1.60;99.90
31499;DHT22;18115;52.486;13.386;2023-02-25T06:37:49;1.70;99.90
31499;DHT22;18115;52.486;13.386;2023-02-25T06:40:15;1.20;99.90
31499;DHT22;18115;52.486;13.386;2023-02-25T06:42:40;1.70;99.90
31499;DHT22;18115;52.486;13.386;2023-02-25T06:45:06;1.60;99.90
31499;DHT22;18115;52.486;13.386;2023-02-25T06:47:32;1.70;99.90
31499;DHT22;18115;52.486;13.386;2023-02-25T06:49:58;1.60;99.90
31499;DHT22;18115;52.486;13.386;2023-02-25T06:54:50;1.60;99.90
31499;DHT22;18115;52.486;13.386;2023-02-25T06:57:16;1.30;99.90
31499;DHT22;18115;52.486;13.386;2023-02-25T06:59:41;1.70;99.90
31499;DHT22;18115;52.486;13.386;2023-02-25T07:02:13;1.70;99.90
31499;DHT22;18115;52.486;13.386;2023-02-25T07:04:39;1.30;99.90
31499;DHT22;18115;52.486;13.386;2023-02-25T07:07:06;1.60;99.90
31499;DHT22;18115;52.486;13.386;2023-02-25T07:09:32;1.50;99.90
31499;DHT22;18115;52.486;13.386;2023-02-25T07:11:57;1.60;99.90
31499;DHT22;18115;52.486;13.386;2023-02-25T07:14:23;1.70;99.90
31499;DHT22;18115;52.486;13.386;2023-02-25T07:16:49;1.70;99.90
31499;DHT22;18115;52.486;13.386;2023-02-25T07:19:14;1.60;99.90
31499;DHT22;18115;52.486;13.386;2023-02-25T07:21:41;2.60;99.90
31499;DHT22;18115;52.486;13.386;2023-02-25T07:28:59;2.60;99.90
31499;DHT22;18115;52.486;13.386;2023-02-25T07:31:26;1.80;99.90
31499;DHT22;18115;52.486;13.386;2023-02-25T07:33:56;1.70;99.90
31499;DHT22;18115;52.486;13.386;2023-02-25T07:38:52;1.90;99.90
31499;DHT22;18115;52.486;13.386;2023-02-25T07:41:18;1.40;99.90
31499;DHT22;18115;52.486;13.386;2023-02-25T07:43:44;1.90;99.90
31499;DHT22;18115;52.486;13.386;2023-02-25T07:46:10;1.80;99.90
31499;DHT22;18115;52.486;13.386;2023-02-25T07:48:37;1.80;99.90
31499;DHT22;18115;52.486;13.386;2023-02-25T07:51:09;1.80;99.90
31499;DHT22;18115;52.486;13.386;2023-02-25T07:58:27;1.80;99.90
31499;DHT22;18115;52.486;13.386;2023-02-25T08:00:53;1.90;99.90
31499;DHT22;18115;52.486;13.386;2023-02-25T08:05:49;1.90;99.90
31499;DHT22;18115;52.486;13.386;2023-02-25T08:10:42;1.80;99.90
31499;DHT22;18115;52.486;13.386;2023-02-25T08:13:08;1.80;99.90
31499;DHT22;18115;52.486;13.386;2023-02-25T08:15:33;1.50;99.90
31499;DHT22;18115;52.486;13.386;2023-02-25T08:17:59;1.70;99.90
31499;DHT22;18115;52.486;13.386;2023-02-25T08:25:17;1.70;99.90
31499;DHT22;18115;52.486;13.386;2023-02-25T08:30:09;1.80;99.90
31499;DHT22;18115;52.486;13.386;2023-02-25T08:35:03;1.80;99.90
31499;DHT22;18115;52.486;13.386;2023-02-25T08:42:22;1.90;99.90
31499;DHT22;18115;52.486;13.386;2023-02-25T08:44:48;1.90;99.90
31499;DHT22;18115;52.486;13.386;2023-02-25T08:47:14;1.80;99.90
31499;DHT22;18115;52.486;13.386;2023-02-25T08:49:41;1.80;99.90
31499;DHT22;18115;52.486;13.386;2023-02-25T08:52:09;1.70;99.90
31499;DHT22;18115;52.486;13.386;2023-02-25T08:54:37;1.80;99.90
31499;DHT22;18115;52.486;13.386;2023-02-25T08:57:03;1.60;99.90
31499;DHT22;18115;52.486;13.386;2023-02-25T09:02:05;1.60;99.90
31499;DHT22;18115;52.486;13.386;2023-02-25T09:04:33;1.60;99.90
31499;DHT22;18115;52.486;13.386;2023-02-25T09:07:00;1.60;99.90
31499;DHT22;18115;52.486;13.386;2023-02-25T09:09:26;1.80;99.90
31499;DHT22;18115;52.486;13.386;2023-02-25T09:21:38;1.30;99.90
31499;DHT22;18115;52.486;13.386;2023-02-25T09:24:07;1.70;99.90
31499;DHT22;18115;52.486;13.386;2023-02-25T09:29:08;1.70;99.90
31499;DHT22;18115;52.486;13.386;2023-02-25T09:34:03;1.70;99.90
31499;DHT22;18115;52.486;13.386;2023-02-25T09:36:31;1.90;99.90
31499;DHT22;18115;52.486;13.386;2023-02-25T09:38:57;1.90;99.90
31499;DHT22;18115;52.486;13.386;2023-02-25T09:46:38;2.10;99.90
31499;DHT22;18115;52.486;13.386;2023-02-25T09:49:14;2.20;99.90
31499;DHT22;18115;52.486;13.386;2023-02-25T09:51:45;2.20;99.90
31499;DHT22;18115;52.486;13.386;2023-02-25T09:54:37;2.00;99.90
31499;DHT22;18115;52.486;13.386;2023-02-25T09:57:11;1.90;99.90
31499;DHT22;18115;52.486;13.386;2023-02-25T09:59:38;2.20;99.90
31499;DHT22;18115;52.486;13.386;2023-02-25T10:02:35;2.20;99.90
31499;DHT22;18115;52.486;13.386;2023-02-25T10:24:43;1.80;99.90
31499;DHT22;18115;52.486;13.386;2023-02-25T10:27:23;1.70;99.90
31499;DHT22;18115;52.486;13.386;2023-02-25T10:29:54;1.60;99.90
31499;DHT22;18115;52.486;13.386;2023-02-25T10:34:48;1.60;99.90
31499;DHT22;18115;52.486;13.386;2023-02-25T10:37:30;1.70;99.90
31499;DHT22;18115;52.486;13.386;2023-02-25T10:39:58;1.80;99.90
31499;DHT22;18115;52.486;13.386;2023-02-25T10:42:24;2.00;99.90
31499;DHT22;18115;52.486;13.386;2023-02-25T10:44:50;2.10;99.90
31499;DHT22;18115;52.486;13.386;2023-02-25T10:47:27;2.10;99.90
31499;DHT22;18115;52.486;13.386;2023-02-25T10:52:59;2.40;99.90
31499;DHT22;18115;52.486;13.386;2023-02-25T10:57:50;2.40;99.90
31499;DHT22;18115;52.486;13.386;2023-02-25T11:05:37;2.70;99.90
31499;DHT22;18115;52.486;13.386;2023-02-25T11:08:04;2.80;99.90
31499;DHT22;18115;52.486;13.386;2023-02-25T11:10:33;3.00;99.90
31499;DHT22;18115;52.486;13.386;2023-02-25T11:12:59;2.80;99.90
31499;DHT22;18115;52.486;13.386;2023-02-25T11:15:32;2.80;99.90
31499;DHT22;18115;52.486;13.386;2023-02-25T11:18:21;2.20;99.90
31499;DHT22;18115;52.486;13.386;2023-02-25T11:20:56;1.90;99.90
31499;DHT22;18115;52.486;13.386;2023-02-25T11:28:32;2.10;99.90
31499;DHT22;18115;52.486;13.386;2023-02-25T11:31:20;2.10;99.90
31499;DHT22;18115;52.486;13.386;2023-02-25T11:41:57;2.00;99.90
31499;DHT22;18115;52.486;13.386;2023-02-25T11:54:54;2.40;99.90
31499;DHT22;18115;52.486;13.386;2023-02-25T12:00:38;2.80;99.90
31499;DHT22;18115;52.486;13.386;2023-02-25T12:05:51;2.70;99.90
31499;DHT22;18115;52.486;13.386;2023-02-25T12:14:11;2.50;99.90
31499;DHT22;18115;52.486;13.386;2023-02-25T12:33:48;2.50;99.90
31499;DHT22;18115;52.486;13.386;2023-02-25T12:47:16;1.50;99.90
31499;DHT22;18115;52.486;13.386;2023-02-25T12:50:11;1.40;99.90
31499;DHT22;18115;52.486;13.386;2023-02-25T12:55:31;1.20;99.90
31499;DHT22;18115;52.486;13.386;2023-02-25T13:17:26;2.10;99.90
31499;DHT22;18115;52.486;13.386;2023-02-25T13:23:24;1.20;99.90
31499;DHT22;18115;52.486;13.386;2023-02-25T13:45:18;2.00;99.90
31499;DHT22;18115;52.486;13.386;2023-02-25T14:11:37;1.60;99.90
31499;DHT22;18115;52.486;13.386;2023-02-25T14:28:00;0.90;99.90
31499;DHT22;18115;52.486;13.386;2023-02-25T14:30:45;1.60;99.90
31499;DHT22;18115;52.486;13.386;2023-02-25T14:36:19;1.60;99.90
31499;DHT22;18115;52.486;13.386;2023-02-25T14:47:28;1.70;99.90
31499;DHT22;18115;52.486;13.386;2023-02-25T14:50:14;1.70;99.90
31499;DHT22;18115;52.486;13.386;2023-02-25T14:58:43;1.90;99.90
31499;DHT22;18115;52.486;13.386;2023-02-25T15:22:34;1.70;99.90
31499;DHT22;18115;52.486;13.386;2023-02-25T15:27:49;2.00;99.90
31499;DHT22;18115;52.486;13.386;2023-02-25T15:30:19;1.60;99.90
31499;DHT22;18115;52.486;13.386;2023-02-25T15:36:18;0.80;99.90
31499;DHT22;18115;52.486;13.386;2023-02-25T15:38:18;1.60;99.90
31499;DHT22;18115;52.486;13.386;2023-02-25T15:40:49;1.60;99.90
31499;DHT22;18115;52.486;13.386;2023-02-25T15:48:36;1.60;99.90
31499;DHT22;18115;52.486;13.386;2023-02-25T15:51:07;1.50;99.90
31499;DHT22;18115;52.486;13.386;2023-02-25T16:06:22;1.40;99.90
31499;DHT22;18115;52.486;13.386;2023-02-25T16:16:42;1.00;99.90
31499;DHT22;18115;52.486;13.386;2023-02-25T16:19:10;0.90;99.90
31499;DHT22;18115;52.486;13.386;2023-02-25T16:21:53;0.90;99.90
31499;DHT22;18115;52.486;13.386;2023-02-25T16:24:21;0.50;99.90
31499;DHT22;18115;52.486;13.386;2023-02-25T16:26:59;1.40;99.90
31499;DHT22;18115;52.486;13.386;2023-02-25T16:35:10;0.60;99.90
31499;DHT22;18115;52.486;13.386;2023-02-25T16:40:24;0.70;99.90
31499;DHT22;18115;52.486;13.386;2023-02-25T16:42:51;0.60;99.90
31499;DHT22;18115;52.486;13.386;2023-02-25T16:45:31;0.60;99.90
31499;DHT22;18115;52.486;13.386;2023-02-25T16:48:03;0.60;99.90
31499;DHT22;18115;52.486;13.386;2023-02-25T16:50:31;0.60;99.90
31499;DHT22;18115;52.486;13.386;2023-02-25T16:52:59;0.70;99.90
31499;DHT22;18115;52.486;13.386;2023-02-25T16:55:28;0.70;99.90
31499;DHT22;18115;52.486;13.386;2023-02-25T17:00:32;0.40;99.90
31499;DHT22;18115;52.486;13.386;2023-02-25T17:03:00;0.50;99.90
31499;DHT22;18115;52.486;13.386;2023-02-25T17:05:35;0.50;99.90
31499;DHT22;18115;52.486;13.386;2023-02-25T17:08:13;0.50;99.90
31499;DHT22;18115;52.486;13.386;2023-02-25T17:10:53;0.50;99.90
31499;DHT22;18115;52.486;13.386;2023-02-25T17:13:34;0.60;99.90
31499;DHT22;18115;52.486;13.386;2023-02-25T17:16:02;0.50;99.90
31499;DHT22;18115;52.486;13.386;2023-02-25T17:21:05;0.50;99.90
31499;DHT22;18115;52.486;13.386;2023-02-25T17:23:39;0.10;99.90
31499;DHT22;18115;52.486;13.386;2023-02-25T17:36:07;0.60;99.90
31499;DHT22;18115;52.486;13.386;2023-02-25T17:38:34;0.50;99.90
31499;DHT22;18115;52.486;13.386;2023-02-25T17:41:00;0.50;99.90
31499;DHT22;18115;52.486;13.386;2023-02-25T17:43:38;0.50;99.90
31499;DHT22;18115;52.486;13.386;2023-02-25T17:48:42;0.50;99.90
31499;DHT22;18115;52.486;13.386;2023-02-25T17:53:47;3.60;99.90
31499;DHT22;18115;52.486;13.386;2023-02-25T17:58:47;0.50;99.90
31499;DHT22;18115;52.486;13.386;2023-02-25T18:01:28;0.60;99.90
31499;DHT22;18115;52.486;13.386;2023-02-25T18:03:56;0.40;99.90
31499;DHT22;18115;52.486;13.386;2023-02-25T18:08:55;0.50;99.90
31499;DHT22;18115;52.486;13.386;2023-02-25T18:21:10;0.30;99.90
31499;DHT22;18115;52.486;13.386;2023-02-25T18:26:21;0.30;99.90
31499;DHT22;18115;52.486;13.386;2023-02-25T18:28:49;0.20;99.90
31499;DHT22;18115;52.486;13.386;2023-02-25T18:33:44;0.20;99.90
31499;DHT22;18115;52.486;13.386;2023-02-25T18:36:23;0.00;99.90
31499;DHT22;18115;52.486;13.386;2023-02-25T18:39:02;0.10;99.90
31499;DHT22;18115;52.486;13.386;2023-02-25T18:43:54;0.20;99.90
31499;DHT22;18115;52.486;13.386;2023-02-25T18:53:39;0.10;99.90
31499;DHT22;18115;52.486;13.386;2023-02-25T18:56:05;0.10;99.90
31499;DHT22;18115;52.486;13.386;2023-02-25T18:58:31;0.00;99.90
31499;DHT22;18115;52.486;13.386;2023-02-25T19:00:58;0.00;99.90
31499;DHT22;18115;52.486;13.386;2023-02-25T19:03:35;0.00;99.90
31499;DHT22;18115;52.486;13.386;2023-02-25T19:13:47;0.00;99.90
31499;DHT22;18115;52.486;13.386;2023-02-25T19:16:13;0.10;99.90
31499;DHT22;18115;52.486;13.386;2023-02-25T19:21:16;0.00;99.90
31499;DHT22;18115;52.486;13.386;2023-02-25T19:28:34;-0.20;99.90
31499;DHT22;18115;52.486;13.386;2023-02-25T19:31:06;0.00;99.90
31499;DHT22;18115;52.486;13.386;2023-02-25T19:33:32;0.40;99.90
31499;DHT22;18115;52.486;13.386;2023-02-25T19:38:24;0.20;99.90
31499;DHT22;18115;52.486;13.386;2023-02-25T19:50:35;0.10;99.90
31499;DHT22;18115;52.486;13.386;2023-02-25T19:53:02;0.00;99.90
31499;DHT22;18115;52.486;13.386;2023-02-25T19:55:28;0.10;99.90
31499;DHT22;18115;52.486;13.386;2023-02-25T20:00:22;-0.60;99.90
31499;DHT22;18115;52.486;13.386;2023-02-25T20:02:49;0.10;99.90
31499;DHT22;18115;52.486;13.386;2023-02-25T20:10:09;0.10;99.90
31499;DHT22;18115;52.486;13.386;2023-02-25T20:12:40;-0.50;99.90
31499;DHT22;18115;52.486;13.386;2023-02-25T20:15:07;0.00;99.90
31499;DHT22;18115;52.486;13.386;2023-02-25T20:17:38;0.10;99.90
31499;DHT22;18115;52.486;13.386;2023-02-25T20:20:05;0.80;99.90
31499;DHT22;18115;52.486;13.386;2023-02-25T20:22:33;0.70;99.90
31499;DHT22;18115;52.486;13.386;2023-02-25T20:29:51;0.20;99.90
31499;DHT22;18115;52.486;13.386;2023-02-25T20:32:16;0.10;99.90
31499;DHT22;18115;52.486;13.386;2023-02-25T20:37:16;0.00;99.90
31499;DHT22;18115;52.486;13.386;2023-02-25T20:39:54;0.00;99.90
31499;DHT22;18115;52.486;13.386;2023-02-25T20:42:22;0.10;99.90
31499;DHT22;18115;52.486;13.386;2023-02-25T20:44:49;0.00;99.90
31499;DHT22;18115;52.486;13.386;2023-02-25T20:47:21;-0.10;99.90
31499;DHT22;18115;52.486;13.386;2023-02-25T20:49:48;0.00;99.90
31499;DHT22;18115;52.486;13.386;2023-02-25T20:54:41;-0.10;99.90
31499;DHT22;18115;52.486;13.386;2023-02-25T20:57:10;-0.10;99.90
31499;DHT22;18115;52.486;13.386;2023-02-25T20:59:36;-0.10;99.90
31499;DHT22;18115;52.486;13.386;2023-02-25T21:06:53;-0.20;99.90
31499;DHT22;18115;52.486;13.386;2023-02-25T21:14:11;-0.20;99.90
31499;DHT22;18115;52.486;13.386;2023-02-25T21:16:39;-0.30;99.90
31499;DHT22;18115;52.486;13.386;2023-02-25T21:19:05;-0.20;99.90
31499;DHT22;18115;52.486;13.386;2023-02-25T21:21:32;-0.20;99.90
31499;DHT22;18115;52.486;13.386;2023-02-25T21:24:10;-0.20;99.90
31499;DHT22;18115;52.486;13.386;2023-02-25T21:31:30;-0.30;99.90
31499;DHT22;18115;52.486;13.386;2023-02-25T21:34:00;-0.10;99.90
31499;DHT22;18115;52.486;13.386;2023-02-25T21:38:52;-0.30;99.90
31499;DHT22;18115;52.486;13.386;2023-02-25T21:46:12;-0.20;99.90
31499;DHT22;18115;52.486;13.386;2023-02-25T21:48:39;-0.40;99.90
31499;DHT22;18115;52.486;13.386;2023-02-25T21:51:06;-0.40;99.90
31499;DHT22;18115;52.486;13.386;2023-02-25T21:56:08;-0.40;99.90
31499;DHT22;18115;52.486;13.386;2023-02-25T22:01:17;-0.40;99.90
31499;DHT22;18115;52.486;13.386;2023-02-25T22:03:44;-0.40;99.90
31499;DHT22;18115;52.486;13.386;2023-02-25T22:08:40;-0.60;99.90
31499;DHT22;18115;52.486;13.386;2023-02-25T22:11:15;-0.50;99.90
31499;DHT22;18115;52.486;13.386;2023-02-25T22:13:41;-0.40;99.90
31499;DHT22;18115;52.486;13.386;2023-02-25T22:18:34;-0.30;99.90
31499;DHT22;18115;52.486;13.386;2023-02-25T22:21:05;-0.50;99.90
31499;DHT22;18115;52.486;13.386;2023-02-25T22:26:03;-0.40;99.90
31499;DHT22;18115;52.486;13.386;2023-02-25T22:35:55;-0.40;99.90
31499;DHT22;18115;52.486;13.386;2023-02-25T22:38:21;-0.40;99.90
31499;DHT22;18115;52.486;13.386;2023-02-25T22:40:47;-0.30;99.90
31499;DHT22;18115;52.486;13.386;2023-02-25T22:48:05;-0.30;99.90
31499;DHT22;18115;52.486;13.386;2023-02-25T22:50:30;-0.30;99.90
31499;DHT22;18115;52.486;13.386;2023-02-25T22:55:22;-0.30;99.90
31499;DHT22;18115;52.486;13.386;2023-02-25T22:57:48;0.10;99.90
31499;DHT22;18115;52.486;13.386;2023-02-25T23:00:13;-0.30;99.90
31499;DHT22;18115;52.486;13.386;2023-02-25T23:02:42;-0.30;99.90
31499;DHT22;18115;52.486;13.386;2023-02-25T23:05:08;-0.30;99.90
31499;DHT22;18115;52.486;13.386;2023-02-25T23:07:35;-0.30;99.90
31499;DHT22;18115;52.486;13.386;2023-02-25T23:10:01;0.10;99.90
31499;DHT22;18115;52.486;13.386;2023-02-25T23:12:26;-0.40;99.90
31499;DHT22;18115;52.486;13.386;2023-02-25T23:14:53;-0.40;99.90
31499;DHT22;18115;52.486;13.386;2023-02-25T23:17:19;-0.30;99.90
31499;DHT22;18115;52.486;13.386;2023-02-25T23:19:45;-0.20;99.90
31499;DHT22;18115;52.486;13.386;2023-02-25T23:22:13;-0.40;99.90
31499;DHT22;18115;52.486;13.386;2023-02-25T23:24:46;-0.50;99.90
31499;DHT22;18115;52.486;13.386;2023-02-25T23:27:12;-0.60;99.90
31499;DHT22;18115;52.486;13.386;2023-02-25T23:29:39;0.80;99.90
31499;DHT22;18115;52.486;13.386;2023-02-25T23:32:05;-0.30;99.90
31499;DHT22;18115;52.486;13.386;2023-02-25T23:34:30;-0.50;99.90
31499;DHT22;18115;52.486;13.386;2023-02-25T23:36:56;-0.50;99.90
31499;DHT22;18115;52.486;13.386;2023-02-25T23:39:22;-0.50;99.90
31499;DHT22;18115;52.486;13.386;2023-02-25T23:41:50;-0.50;99.90
31499;DHT22;18115;52.486;13.386;2023-02-25T23:44:15;-0.50;99.90
31499;DHT22;18115;52.486;13.386;2023-02-25T23:46:42;-0.60;99.90
31499;DHT22;18115;52.486;13.386;2023-02-25T23:49:14;-0.60;99.90
31499;DHT22;18115;52.486;13.386;2023-02-25T23:51:45;-0.50;99.90
31499;DHT22;18115;52.486;13.386;2023-02-25T23:54:13;-0.60;99.90
31499;DHT22;18115;52.486;13.386;2023-02-25T23:56:39;-0.60;99.90
31499;DHT22;18115;52.486;13.386;2023-02-25T23:59:04;-0.50;99.90
